Time;durP1;ratioP1;P1;durP2;ratioP2;P2;SDS_P1;SDS_P2;PMS_P1;PMS_P2;Temp;Humidity;BMP_temperature;BMP_pressure;BME280_temperature;BME280_humidity;BME280_pressure;Samples;Min_cycle;Max_cycle;Signal;HPM_P1;HPM_P2
2024/04/08 00:01:25;;;;;;;23.60;19.90;;;;;;;17.14;62.77;100371.09;113021;1254;22067;-69
2024/04/08 00:03:57;;;;;;;32.00;24.50;;;;;;;17.13;62.66;100366.98;113040;1255;21902;-68
2024/04/08 00:06:25;;;;;;;30.90;23.70;;;;;;;17.09;62.63;100366.40;113032;1255;21843;-68
2024/04/08 00:08:54;;;;;;;25.20;20.00;;;;;;;17.04;62.58;100370.98;113058;1255;22365;-69
2024/04/08 00:11:23;;;;;;;24.20;19.40;;;;;;;16.98;62.83;100375.17;113038;1255;21841;-68
2024/04/08 00:13:51;;;;;;;25.90;19.70;;;;;;;16.95;63.03;100377.54;113072;1254;21865;-71
2024/04/08 00:16:20;;;;;;;27.40;21.40;;;;;;;16.95;62.98;100374.39;113020;1255;21761;-72
2024/04/08 00:18:48;;;;;;;33.30;20.90;;;;;;;16.91;62.90;100366.73;113067;1255;21854;-68
2024/04/08 00:21:17;;;;;;;26.30;21.80;;;;;;;16.86;62.95;100359.55;113044;1255;21940;-69
2024/04/08 00:23:47;;;;;;;27.40;23.20;;;;;;;16.82;63.12;100355.33;113044;1254;21853;-69
2024/04/08 00:26:15;;;;;;;26.80;22.00;;;;;;;16.78;63.38;100354.80;112895;1255;21891;-69
2024/04/08 00:28:44;;;;;;;24.00;19.20;;;;;;;16.78;63.43;100351.45;113025;1255;22010;-71
2024/04/08 00:31:13;;;;;;;27.50;21.90;;;;;;;16.77;63.46;100348.70;112880;1255;21878;-68
2024/04/08 00:33:42;;;;;;;31.70;23.20;;;;;;;16.74;63.29;100346.27;113046;1255;22303;-69
2024/04/08 00:36:10;;;;;;;28.90;22.30;;;;;;;16.70;63.27;100345.48;113030;1255;22215;-70
2024/04/08 00:38:39;;;;;;;27.30;21.60;;;;;;;16.65;63.56;100343.21;113056;1255;22174;-70
2024/04/08 00:41:08;;;;;;;29.30;22.80;;;;;;;16.61;63.60;100341.13;113050;1255;22277;-70
2024/04/08 00:43:36;;;;;;;22.50;19.60;;;;;;;16.57;63.65;100341.55;113034;1255;21773;-70
2024/04/08 00:46:06;;;;;;;22.10;19.50;;;;;;;16.55;63.61;100340.52;113034;1255;21866;-69
2024/04/08 00:48:35;;;;;;;25.80;20.90;;;;;;;16.53;63.87;100341.95;113041;1255;22351;-70
2024/04/08 00:51:04;;;;;;;26.00;22.50;;;;;;;16.53;63.80;100337.80;113045;1255;21915;-75
2024/04/08 00:53:33;;;;;;;25.00;21.40;;;;;;;16.55;63.87;100339.75;113024;1255;21877;-72
2024/04/08 00:56:02;;;;;;;26.00;19.50;;;;;;;16.56;63.89;100340.89;112899;1255;21867;-69
2024/04/08 00:58:31;;;;;;;20.00;17.80;;;;;;;16.55;63.75;100340.64;113023;1255;22380;-68
2024/04/08 01:01:01;;;;;;;19.40;17.00;;;;;;;16.51;63.72;100343.58;112873;1255;201262;-70
2024/04/08 01:03:30;;;;;;;22.80;18.60;;;;;;;16.44;63.64;100345.20;113026;1254;21787;-68
2024/04/08 01:05:59;;;;;;;22.20;18.70;;;;;;;16.40;64.00;100340.61;113045;1254;21906;-69
2024/04/08 01:08:28;;;;;;;24.00;18.90;;;;;;;16.40;64.10;100335.48;113057;1255;21891;-70
2024/04/08 01:10:57;;;;;;;26.40;20.40;;;;;;;16.42;64.07;100328.37;113044;1255;21812;-70
2024/04/08 01:13:25;;;;;;;25.00;20.00;;;;;;;16.41;63.98;100323.86;113029;1255;21850;-68
2024/04/08 01:15:54;;;;;;;22.60;19.60;;;;;;;16.37;63.87;100322.59;112886;1255;21818;-69
2024/04/08 01:18:23;;;;;;;22.40;18.10;;;;;;;16.31;63.96;100320.73;113018;1254;21877;-70
2024/04/08 01:20:52;;;;;;;22.60;16.90;;;;;;;16.23;64.25;100324.34;113040;1255;21772;-69
2024/04/08 01:23:24;;;;;;;20.70;17.20;;;;;;;16.17;64.47;100325.65;113074;1255;21963;-70
2024/04/08 01:25:52;;;;;;;22.30;16.70;;;;;;;16.14;64.43;100323.53;113036;1255;22327;-69
2024/04/08 01:28:22;;;;;;;22.20;16.60;;;;;;;16.12;64.51;100318.45;113022;1255;21840;-70
2024/04/08 01:30:50;;;;;;;18.30;15.50;;;;;;;16.13;64.28;100316.06;113049;1255;21762;-71
2024/04/08 01:33:21;;;;;;;19.70;16.30;;;;;;;16.15;64.49;100316.04;113058;1255;21988;-69
2024/04/08 01:35:50;;;;;;;20.10;16.00;;;;;;;16.16;64.32;100314.32;113051;1255;21846;-69
2024/04/08 01:38:18;;;;;;;22.10;17.90;;;;;;;16.17;64.40;100313.13;113047;1255;21917;-69
2024/04/08 01:40:47;;;;;;;19.60;16.10;;;;;;;16.17;64.31;100308.50;113055;1255;21863;-69
2024/04/08 01:43:15;;;;;;;19.40;17.20;;;;;;;16.17;64.27;100307.33;113057;1255;22068;-69
2024/04/08 01:45:44;;;;;;;18.40;14.80;;;;;;;16.14;64.44;100304.09;113060;1255;21894;-71
2024/04/08 01:48:13;;;;;;;16.70;14.10;;;;;;;16.09;64.44;100296.66;113040;1255;21816;-69
2024/04/08 01:50:41;;;;;;;17.50;15.20;;;;;;;16.01;64.47;100289.82;113002;1255;21880;-69
2024/04/08 01:53:10;;;;;;;20.00;15.20;;;;;;;15.91;64.87;100288.06;113028;1254;21840;-69
2024/04/08 01:55:39;;;;;;;19.10;15.70;;;;;;;15.84;65.28;100293.86;113043;1255;21868;-69
2024/04/08 01:58:07;;;;;;;19.00;16.30;;;;;;;15.74;65.36;100296.05;113016;1255;21882;-69
2024/04/08 02:00:36;;;;;;;16.00;14.40;;;;;;;15.63;65.84;100292.59;113028;1255;21859;-69
2024/04/08 02:03:05;;;;;;;15.20;13.70;;;;;;;15.57;65.94;100292.11;113023;1254;21836;-69
2024/04/08 02:05:33;;;;;;;17.20;14.70;;;;;;;15.53;66.20;100293.55;113049;1248;21842;-69
2024/04/08 02:08:02;;;;;;;17.90;13.50;;;;;;;15.50;66.48;100291.80;113048;1255;21841;-68
2024/04/08 02:10:31;;;;;;;13.10;11.90;;;;;;;15.48;66.31;100292.17;113029;1255;21905;-69
2024/04/08 02:12:59;;;;;;;15.30;12.40;;;;;;;15.45;66.67;100296.37;113021;1255;21917;-69
2024/04/08 02:15:28;;;;;;;15.50;12.50;;;;;;;15.41;66.90;100296.55;113041;1255;22254;-69
2024/04/08 02:17:56;;;;;;;12.90;11.50;;;;;;;15.40;66.66;100297.55;113055;1255;21844;-69
2024/04/08 02:20:26;;;;;;;15.90;12.10;;;;;;;15.38;66.88;100298.60;113044;1255;21902;-73
2024/04/08 02:22:55;;;;;;;12.00;10.90;;;;;;;15.39;66.63;100295.65;113046;1255;21879;-70
2024/04/08 02:25:23;;;;;;;19.10;12.70;;;;;;;15.41;66.86;100292.29;113011;1255;21914;-70
2024/04/08 02:27:52;;;;;;;12.70;11.00;;;;;;;15.43;66.80;100288.02;113042;1254;21838;-69
2024/04/08 02:30:20;;;;;;;13.80;12.00;;;;;;;15.46;66.58;100282.05;113071;1255;22246;-70
2024/04/08 02:32:49;;;;;;;14.40;12.50;;;;;;;15.51;66.32;100281.80;113068;1255;22376;-69
2024/04/08 02:35:18;;;;;;;16.90;12.80;;;;;;;15.54;66.29;100282.65;113065;1255;21858;-69
2024/04/08 02:37:47;;;;;;;15.40;11.70;;;;;;;15.56;66.29;100283.36;113051;1255;21921;-73
2024/04/08 02:40:20;;;;;;;15.10;12.90;;;;;;;15.56;66.29;100288.61;113073;1255;21873;-70
2024/04/08 02:42:51;;;;;;;12.80;11.50;;;;;;;15.57;66.42;100287.85;112903;1248;21891;-68
2024/04/08 02:45:20;;;;;;;13.70;11.90;;;;;;;15.57;66.24;100286.63;113051;1255;21884;-70
2024/04/08 02:47:48;;;;;;;12.90;11.60;;;;;;;15.57;66.14;100287.30;113034;1254;21839;-68
2024/04/08 02:50:17;;;;;;;13.20;11.10;;;;;;;15.57;66.13;100289.64;113032;1254;21927;-69
2024/04/08 02:52:46;;;;;;;15.80;11.80;;;;;;;15.56;66.00;100289.56;113062;1255;21880;-70
2024/04/08 02:55:14;;;;;;;17.80;16.00;;;;;;;15.57;66.19;100287.50;113025;1255;22005;-70
2024/04/08 02:57:43;;;;;;;13.80;12.40;;;;;;;15.58;66.23;100283.85;113060;1255;21925;-68
2024/04/08 03:00:12;;;;;;;16.60;13.30;;;;;;;15.60;66.28;100276.59;113084;1254;21861;-68
2024/04/08 03:02:45;;;;;;;16.10;11.60;;;;;;;15.61;66.06;100272.34;113035;1255;21818;-69
2024/04/08 03:05:14;;;;;;;13.90;11.50;;;;;;;15.60;66.00;100269.80;113047;1255;21895;-69
2024/04/08 03:07:43;;;;;;;15.70;11.70;;;;;;;15.57;66.33;100266.70;113035;1255;21841;-69
2024/04/08 03:10:12;;;;;;;14.60;12.10;;;;;;;15.54;66.26;100266.45;113047;1255;22223;-73
2024/04/08 03:12:40;;;;;;;15.60;12.20;;;;;;;15.50;66.43;100260.96;113061;1254;21876;-69
2024/04/08 03:15:09;;;;;;;12.90;11.70;;;;;;;15.46;66.70;100260.59;113048;1255;21892;-71
2024/04/08 03:17:38;;;;;;;20.30;12.80;;;;;;;15.47;66.73;100259.66;113062;1255;22316;-69
2024/04/08 03:20:07;;;;;;;16.60;13.70;;;;;;;15.50;66.70;100256.74;113076;1255;22283;-68
2024/04/08 03:22:35;;;;;;;13.20;11.80;;;;;;;15.52;66.44;100256.54;113049;1255;21859;-68
2024/04/08 03:25:04;;;;;;;12.70;10.90;;;;;;;15.53;66.25;100258.02;113014;1255;21875;-71
2024/04/08 03:27:33;;;;;;;11.60;10.40;;;;;;;15.52;66.52;100255.10;113027;1255;21873;-69
2024/04/08 03:30:02;;;;;;;13.60;12.30;;;;;;;15.49;66.60;100259.14;113032;1255;22015;-69
2024/04/08 03:32:33;;;;;;;12.40;11.10;;;;;;;15.43;66.72;100254.13;113033;1255;22228;-69
2024/04/08 03:35:02;;;;;;;11.90;10.10;;;;;;;15.38;66.76;100256.52;113018;1254;21909;-69
2024/04/08 03:37:30;;;;;;;14.50;11.50;;;;;;;15.35;67.09;100262.54;113038;1255;21915;-69
2024/04/08 03:39:59;;;;;;;16.80;11.80;;;;;;;15.35;67.12;100264.66;113032;1255;22258;-69
2024/04/08 03:42:27;;;;;;;12.40;10.60;;;;;;;15.35;66.96;100262.15;113040;1255;21912;-68
2024/04/08 03:44:56;;;;;;;13.10;9.80;;;;;;;15.33;67.10;100261.24;113015;1255;21885;-68
2024/04/08 03:47:25;;;;;;;11.30;9.40;;;;;;;15.31;67.01;100259.29;113021;1255;21930;-70
2024/04/08 03:49:54;;;;;;;10.90;9.80;;;;;;;15.30;67.16;100246.95;113036;1255;21865;-72
2024/04/08 03:52:22;;;;;;;11.70;9.30;;;;;;;15.28;67.45;100246.80;113057;1255;21857;-70
2024/04/08 03:54:51;;;;;;;10.30;9.00;;;;;;;15.28;67.40;100249.02;113048;1255;21860;-69
2024/04/08 03:57:20;;;;;;;11.60;9.30;;;;;;;15.29;67.31;100249.41;113037;1255;22270;-68
2024/04/08 03:59:49;;;;;;;8.80;7.90;;;;;;;15.31;67.17;100248.14;113035;1255;21852;-69
2024/04/08 04:02:17;;;;;;;10.30;8.40;;;;;;;15.32;67.29;100241.54;113053;1255;21854;-70
2024/04/08 04:04:46;;;;;;;13.90;9.80;;;;;;;15.31;67.30;100238.08;113040;1255;21929;-70
2024/04/08 04:07:15;;;;;;;9.30;8.30;;;;;;;15.30;67.61;100242.36;113038;1255;22236;-71
2024/04/08 04:09:43;;;;;;;8.80;7.90;;;;;;;15.31;67.49;100243.74;113022;1255;22356;-68
2024/04/08 04:12:12;;;;;;;11.70;8.20;;;;;;;15.31;67.53;100241.06;113029;1255;21927;-67
2024/04/08 04:14:40;;;;;;;12.50;9.10;;;;;;;15.32;67.58;100239.94;113033;1255;21823;-66
2024/04/08 04:17:09;;;;;;;11.70;9.30;;;;;;;15.32;67.60;100241.11;113047;1255;21903;-68
2024/04/08 04:19:38;;;;;;;9.70;8.60;;;;;;;15.34;67.73;100239.16;113038;1254;21868;-67
2024/04/08 04:22:06;;;;;;;14.80;9.60;;;;;;;15.34;67.67;100237.93;113019;1255;22196;-71
2024/04/08 04:24:35;;;;;;;12.10;9.60;;;;;;;15.36;67.84;100239.84;113037;1255;22358;-70
2024/04/08 04:27:04;;;;;;;14.30;9.80;;;;;;;15.42;67.64;100241.30;113017;1255;21780;-70
2024/04/08 04:29:32;;;;;;;14.40;9.40;;;;;;;15.49;67.44;100240.28;113050;1248;21899;-73
2024/04/08 04:32:08;;;;;;;12.50;9.30;;;;;;;15.54;67.33;100237.20;112900;1255;21864;-70
2024/04/08 04:34:37;;;;;;;13.20;9.60;;;;;;;15.58;67.15;100242.30;113047;1255;22357;-70
2024/04/08 04:37:06;;;;;;;10.20;9.10;;;;;;;15.61;67.32;100237.81;112908;1255;22181;-71
2024/04/08 04:39:35;;;;;;;9.40;8.20;;;;;;;15.62;67.08;100233.94;113063;1255;21880;-74
2024/04/08 04:42:04;;;;;;;12.80;9.30;;;;;;;15.65;67.25;100232.96;113050;1255;21813;-71
2024/04/08 04:44:34;;;;;;;14.60;8.70;;;;;;;15.70;67.14;100236.63;113043;1254;21878;-71
2024/04/08 04:47:09;;;;;;;11.90;9.10;;;;;;;15.74;67.20;100229.82;112914;1255;21804;-70
2024/04/08 04:49:38;;;;;;;13.10;7.60;;;;;;;15.81;67.01;100233.09;113040;1255;21858;-73
2024/04/08 04:52:12;;;;;;;9.70;8.40;;;;;;;15.87;67.01;100232.85;113032;1255;21841;-69
2024/04/08 04:54:41;;;;;;;13.50;8.80;;;;;;;15.95;66.77;100230.66;113040;1255;21885;-71
2024/04/08 04:57:10;;;;;;;13.20;8.80;;;;;;;16.05;66.71;100234.36;113055;1255;21860;-70
2024/04/08 04:59:39;;;;;;;14.30;10.10;;;;;;;16.14;66.40;100227.67;113041;1255;22270;-70
2024/04/08 05:02:07;;;;;;;12.40;9.00;;;;;;;16.22;66.02;100227.77;113032;1255;22241;-70
2024/04/08 05:04:44;;;;;;;11.00;8.40;;;;;;;16.28;65.92;100225.23;113029;1255;21851;-70
2024/04/08 05:07:12;;;;;;;11.30;7.80;;;;;;;16.33;65.83;100225.13;113050;1255;22746;-69
2024/04/08 05:09:48;;;;;;;12.30;8.50;;;;;;;16.35;65.70;100224.87;113029;1255;21837;-70
2024/04/08 05:12:17;;;;;;;11.30;8.20;;;;;;;16.36;65.50;100232.94;113057;1255;21919;-70
2024/04/08 05:14:45;;;;;;;8.40;7.30;;;;;;;16.38;65.48;100227.50;113049;1255;21735;-70
2024/04/08 05:17:14;;;;;;;11.80;8.20;;;;;;;16.41;65.53;100220.57;113051;1255;21916;-71
2024/04/08 05:19:43;;;;;;;16.10;10.90;;;;;;;16.48;65.46;100218.38;113045;1255;21892;-69
2024/04/08 05:22:16;;;;;;;15.90;10.80;;;;;;;16.59;65.33;100217.67;113042;1255;21910;-71
2024/04/08 05:24:45;;;;;;;14.60;10.70;;;;;;;16.72;64.94;100221.55;113046;1255;21903;-70
2024/04/08 05:27:14;;;;;;;15.20;10.40;;;;;;;16.82;64.75;100226.04;113048;1255;22213;-72
2024/04/08 05:29:42;;;;;;;9.80;7.90;;;;;;;16.89;64.18;100226.92;113038;1255;21769;-69
2024/04/08 05:32:11;;;;;;;8.20;7.40;;;;;;;16.95;64.13;100226.17;113042;1255;21875;-70
2024/04/08 05:34:40;;;;;;;13.00;8.60;;;;;;;17.03;63.80;100222.97;112868;1255;21889;-70
2024/04/08 05:37:09;;;;;;;10.90;7.30;;;;;;;17.10;63.59;100234.52;112860;1255;21904;-70
2024/04/08 05:39:37;;;;;;;10.20;7.60;;;;;;;17.15;63.24;100238.42;112496;1260;21958;-70
2024/04/08 05:42:09;;;;;;;9.10;7.00;;;;;;;17.20;63.20;100237.55;112613;1251;21986;-70
2024/04/08 05:44:38;;;;;;;12.20;7.30;;;;;;;17.26;63.04;100233.80;112463;1260;22434;-70
2024/04/08 05:47:06;;;;;;;8.90;6.70;;;;;;;17.28;62.74;100227.67;112525;1260;21880;-70
2024/04/08 05:49:35;;;;;;;7.80;6.50;;;;;;;17.31;62.57;100224.59;112551;1260;21918;-69
2024/04/08 05:52:04;;;;;;;10.60;6.60;;;;;;;17.32;62.38;100222.66;112573;1260;21837;-70
2024/04/08 05:54:33;;;;;;;10.00;5.90;;;;;;;17.34;62.47;100221.81;112592;1260;22388;-71
2024/04/08 05:57:01;;;;;;;12.20;6.80;;;;;;;17.37;62.31;100223.74;111762;1261;21920;-69
2024/04/08 05:59:30;;;;;;;8.50;7.00;;;;;;;17.43;62.09;100222.80;112488;1261;21876;-70
2024/04/08 06:01:59;;;;;;;13.10;6.70;;;;;;;17.53;61.82;100225.60;112500;1261;22219;-71
2024/04/08 06:04:27;;;;;;;9.40;5.60;;;;;;;17.69;61.67;100225.19;112432;1261;21894;-70
2024/04/08 06:06:56;;;;;;;13.20;5.90;;;;;;;17.79;61.25;100222.91;112582;1262;21762;-69
2024/04/08 06:09:25;;;;;;;11.00;5.60;;;;;;;17.95;61.04;100220.27;112488;1261;21828;-71
2024/04/08 06:11:54;;;;;;;11.00;5.60;;;;;;;18.12;60.46;100215.09;112331;1261;21809;-70
2024/04/08 06:14:22;;;;;;;7.60;5.80;;;;;;;18.31;59.60;100209.90;112481;1255;21890;-70
2024/04/08 06:16:51;;;;;;;9.00;5.20;;;;;;;18.46;59.43;100202.77;113025;1255;22383;-70
2024/04/08 06:19:20;;;;;;;9.60;5.00;;;;;;;18.67;58.85;100207.04;112868;1255;21860;-70
2024/04/08 06:21:49;;;;;;;6.50;4.80;;;;;;;18.92;58.44;100210.45;113030;1255;21862;-70
2024/04/08 06:24:17;;;;;;;13.10;5.30;;;;;;;19.16;57.70;100204.21;113027;1255;21858;-70
2024/04/08 06:26:46;;;;;;;6.30;4.70;;;;;;;19.39;56.89;100205.59;113062;1255;21893;-69
2024/04/08 06:29:15;;;;;;;6.60;4.60;;;;;;;19.62;56.10;100206.00;112872;1255;22435;-71
2024/04/08 06:31:44;;;;;;;8.10;4.60;;;;;;;19.73;55.43;100204.80;113022;1255;22307;-69
2024/04/08 06:34:13;;;;;;;5.90;4.30;;;;;;;19.85;55.23;100211.12;113030;1255;21923;-69
2024/04/08 06:36:44;;;;;;;5.30;4.20;;;;;;;20.04;54.68;100213.09;113050;1255;21864;-69
2024/04/08 06:39:12;;;;;;;7.20;4.80;;;;;;;20.15;54.15;100209.15;113066;1255;21849;-70
2024/04/08 06:41:41;;;;;;;8.10;4.80;;;;;;;20.29;53.94;100210.08;113058;1255;22348;-71
2024/04/08 06:44:10;;;;;;;7.80;4.60;;;;;;;20.53;53.79;100211.11;113072;1255;21856;-71
2024/04/08 06:46:38;;;;;;;7.10;4.30;;;;;;;20.88;52.89;100216.83;113018;1255;21942;-70
2024/04/08 06:49:08;;;;;;;7.60;4.30;;;;;;;21.23;52.17;100218.46;113067;1255;21848;-70
2024/04/08 06:51:37;;;;;;;8.60;4.70;;;;;;;21.54;50.95;100218.48;113035;1255;21852;-70
2024/04/08 06:54:05;;;;;;;7.30;4.10;;;;;;;21.72;50.08;100217.89;113049;1255;21843;-71
2024/04/08 06:56:34;;;;;;;8.40;4.40;;;;;;;21.85;49.76;100213.92;113051;1255;21913;-71
2024/04/08 06:59:02;;;;;;;18.30;5.30;;;;;;;22.01;49.34;100215.98;113049;1255;22017;-70
2024/04/08 07:01:33;;;;;;;6.00;4.10;;;;;;;22.02;48.63;100213.36;113058;1255;21863;-69
2024/04/08 07:04:02;;;;;;;8.10;4.20;;;;;;;22.07;48.58;100214.78;113047;1255;21897;-71
2024/04/08 07:06:30;;;;;;;7.80;4.40;;;;;;;22.30;48.24;100219.47;113056;1255;22395;-72
2024/04/08 07:08:59;;;;;;;5.30;4.40;;;;;;;22.64;47.74;100222.13;113012;1255;22216;-72
2024/04/08 07:11:29;;;;;;;7.50;4.50;;;;;;;22.95;46.63;100227.72;112902;1255;21934;-68
2024/04/08 07:13:58;;;;;;;7.60;4.20;;;;;;;23.15;46.01;100227.98;113057;1255;21843;-67
2024/04/08 07:16:27;;;;;;;7.30;4.90;;;;;;;23.38;45.53;100226.03;113019;1255;21783;-68
2024/04/08 07:18:55;;;;;;;4.60;3.50;;;;;;;23.66;44.91;100222.67;113044;1255;21858;-67
2024/04/08 07:21:24;;;;;;;8.70;3.90;;;;;;;23.76;44.17;100221.20;113047;1255;21868;-71
2024/04/08 07:23:53;;;;;;;9.40;4.10;;;;;;;23.57;43.91;100221.31;113055;1255;21847;-67
2024/04/08 07:26:22;;;;;;;8.80;3.30;;;;;;;23.37;43.84;100219.86;113024;1255;21842;-69
2024/04/08 07:28:50;;;;;;;6.30;3.60;;;;;;;23.27;44.31;100226.73;113027;1255;21859;-68
2024/04/08 07:31:19;;;;;;;6.30;3.60;;;;;;;23.30;44.50;100223.20;113047;1255;22289;-68
2024/04/08 07:33:48;;;;;;;8.00;3.80;;;;;;;23.35;44.52;100217.20;112905;1255;21924;-68
2024/04/08 07:36:17;;;;;;;6.10;3.40;;;;;;;23.33;44.13;100214.55;113054;1255;21866;-69
2024/04/08 07:38:46;;;;;;;7.40;3.80;;;;;;;23.37;44.07;100214.97;113057;1255;21878;-68
2024/04/08 07:41:30;;;;;;;7.10;3.80;;;;;;;23.49;43.86;100215.11;113061;1255;21879;-68
2024/04/08 07:43:58;;;;;;;6.80;3.70;;;;;;;23.73;43.53;100216.35;113049;1255;22269;-67
2024/04/08 07:46:27;;;;;;;10.20;3.30;;;;;;;23.97;43.11;100212.16;113049;1255;21907;-68
2024/04/08 07:48:55;;;;;;;6.10;3.30;;;;;;;24.28;42.67;100214.33;113036;1255;21856;-70
2024/04/08 07:51:24;;;;;;;4.90;3.30;;;;;;;24.59;42.29;100217.33;113079;1255;21853;-69
2024/04/08 07:53:52;;;;;;;5.30;3.10;;;;;;;24.93;41.80;100216.92;113062;1255;21914;-70
2024/04/08 07:56:21;;;;;;;8.50;3.40;;;;;;;25.08;40.63;100218.71;113066;1255;22317;-68
2024/04/08 07:58:51;;;;;;;5.00;3.10;;;;;;;25.14;40.87;100215.05;113048;1255;21916;-68
2024/04/08 08:01:20;;;;;;;5.10;2.90;;;;;;;25.27;40.59;100218.06;113051;1252;21847;-69
2024/04/08 08:03:48;;;;;;;5.40;3.20;;;;;;;25.35;40.30;100210.40;113043;1255;22186;-69
2024/04/08 08:06:17;;;;;;;7.40;2.90;;;;;;;25.54;40.23;100208.65;113029;1255;22382;-68
2024/04/08 08:08:46;;;;;;;4.30;3.00;;;;;;;25.74;39.93;100206.84;113037;1255;21878;-68
2024/04/08 08:11:15;;;;;;;9.30;3.30;;;;;;;25.82;39.64;100205.83;113051;1255;21919;-69
2024/04/08 08:13:44;;;;;;;4.70;2.90;;;;;;;25.90;39.40;100204.73;113043;1255;21842;-69
2024/04/08 08:16:12;;;;;;;7.20;3.40;;;;;;;26.05;39.35;100209.33;113045;1255;21886;-70
2024/04/08 08:18:41;;;;;;;7.30;3.40;;;;;;;26.13;39.08;100211.64;113038;1255;21860;-70
2024/04/08 08:21:10;;;;;;;8.70;3.60;;;;;;;26.15;38.96;100210.30;113037;1255;22182;-70
2024/04/08 08:23:39;;;;;;;10.30;3.50;;;;;;;26.19;38.71;100210.66;112815;1255;21860;-69
2024/04/08 08:26:08;;;;;;;10.80;4.00;;;;;;;26.27;38.43;100214.17;113037;1255;21861;-70
2024/04/08 08:28:36;;;;;;;6.70;3.70;;;;;;;26.34;38.50;100217.40;113014;1255;22144;-68
2024/04/08 08:31:05;;;;;;;7.40;3.40;;;;;;;26.45;38.20;100217.67;113009;1255;21894;-69
2024/04/08 08:33:34;;;;;;;8.40;3.30;;;;;;;26.57;37.86;100224.69;113055;1255;21876;-69
2024/04/08 08:36:03;;;;;;;6.50;3.20;;;;;;;26.65;37.57;100231.23;113009;1255;22687;-69
2024/04/08 08:38:33;;;;;;;10.10;4.30;;;;;;;26.75;37.60;100237.42;113049;1255;22262;-69
2024/04/08 08:41:07;;;;;;;6.40;3.90;;;;;;;27.06;37.59;100235.61;113023;1255;21856;-68
2024/04/08 08:43:40;;;;;;;6.60;3.60;;;;;;;27.41;36.86;100235.92;113062;1255;21861;-70
2024/04/08 08:46:09;;;;;;;8.00;4.80;;;;;;;27.54;36.21;100233.60;113056;1255;21871;-69
2024/04/08 08:48:41;;;;;;;7.50;4.20;;;;;;;27.65;36.12;100236.06;113057;1255;21857;-69
2024/04/08 08:51:11;;;;;;;10.30;3.80;;;;;;;27.87;36.18;100238.56;113040;1255;22453;-70
2024/04/08 08:53:40;;;;;;;5.20;3.40;;;;;;;27.99;35.72;100240.91;112906;1255;21862;-68
2024/04/08 08:56:15;;;;;;;6.10;3.30;;;;;;;28.02;35.56;100242.84;113033;1255;21863;-68
2024/04/08 08:58:53;;;;;;;9.00;4.50;;;;;;;28.08;35.00;100244.02;113052;1255;22212;-69
2024/04/08 09:01:21;;;;;;;14.00;4.20;;;;;;;28.09;35.60;100238.84;113041;1255;21904;-72
2024/04/08 09:03:55;;;;;;;18.90;5.00;;;;;;;28.31;35.33;100243.41;112873;1255;22036;-69
2024/04/08 09:06:23;;;;;;;10.90;3.80;;;;;;;28.54;34.76;100248.67;113058;1255;21865;-69
2024/04/08 09:08:52;;;;;;;6.20;3.30;;;;;;;28.67;34.14;100253.12;113038;1254;21874;-69
2024/04/08 09:11:21;;;;;;;5.60;3.40;;;;;;;28.79;34.12;100257.43;113039;1255;22281;-70
2024/04/08 09:13:50;;;;;;;5.20;2.80;;;;;;;28.97;33.86;100257.34;112999;1255;21855;-70
2024/04/08 09:16:22;;;;;;;8.10;2.60;;;;;;;29.05;33.05;100249.95;113066;1255;21926;-70
2024/04/08 09:18:51;;;;;;;5.90;2.30;;;;;;;29.17;32.84;100244.39;113031;1255;22245;-69
2024/04/08 09:21:19;;;;;;;5.70;2.80;;;;;;;29.17;31.91;100241.95;113037;1255;21874;-70
2024/04/08 09:23:53;;;;;;;8.30;2.60;;;;;;;28.94;31.84;100235.88;113039;1255;21865;-69
2024/04/08 09:26:21;;;;;;;5.70;2.70;;;;;;;28.76;32.18;100238.36;113035;1255;21950;-69
2024/04/08 09:28:50;;;;;;;4.60;2.20;;;;;;;28.69;32.19;100242.35;113038;1252;22572;-76
2024/04/08 09:31:22;;;;;;;3.50;2.10;;;;;;;28.41;31.95;100239.05;113023;1255;21909;-73
2024/04/08 09:33:51;;;;;;;5.50;2.20;;;;;;;28.21;32.15;100234.33;112862;1255;21857;-69
2024/04/08 09:36:20;;;;;;;7.10;3.10;;;;;;;28.10;32.55;100232.36;112901;1255;22291;-69
2024/04/08 09:38:51;;;;;;;6.80;2.90;;;;;;;27.95;32.82;100232.09;112874;1255;21874;-71
2024/04/08 09:41:21;;;;;;;;;;;;;;;27.76;33.05;100226.79;112684;1255;21889;-68
2024/04/08 09:43:50;;;;;;;4.70;2.50;;;;;;;27.48;33.80;100224.64;112744;1255;21879;-69
2024/04/08 09:46:19;;;;;;;6.80;1.90;;;;;;;27.45;33.46;100220.91;112890;1249;21864;-70
2024/04/08 09:48:52;;;;;;;3.90;2.00;;;;;;;27.49;33.40;100216.67;112812;1256;21894;-70
2024/04/08 09:51:22;;;;;;;5.90;1.90;;;;;;;27.63;33.56;100213.55;112823;1255;22474;-70
2024/04/08 09:53:51;;;;;;;8.70;2.50;;;;;;;27.64;33.20;100211.52;112643;1256;22350;-74
2024/04/08 09:56:21;;;;;;;4.70;2.20;;;;;;;27.76;33.45;100208.51;112826;1255;21899;-74
2024/04/08 09:59:13;;;;;;;5.60;2.00;;;;;;;27.93;32.96;100201.79;112880;1255;21913;-71
2024/04/08 10:01:43;;;;;;;3.70;2.10;;;;;;;28.15;32.77;100201.30;113045;1255;22179;-74
2024/04/08 10:04:19;;;;;;;5.00;1.70;;;;;;;28.24;32.26;100201.45;113031;1255;21892;-72
2024/04/08 10:06:49;;;;;;;3.70;2.30;;;;;;;28.14;32.25;100203.41;113021;1254;21849;-70
2024/04/08 10:09:21;;;;;;;6.00;2.30;;;;;;;28.10;32.22;100201.98;112815;1254;22235;-70
2024/04/08 10:11:53;;;;;;;4.00;1.90;;;;;;;28.10;32.25;100202.66;112868;1254;21867;-70
2024/04/08 10:14:23;;;;;;;3.50;1.90;;;;;;;28.17;32.48;100198.52;112844;1255;21883;-71
2024/04/08 10:16:57;;;;;;;4.30;1.80;;;;;;;28.30;32.23;100197.87;112906;1255;21865;-70
2024/04/08 10:19:29;;;;;;;9.80;2.40;;;;;;;28.35;31.69;100199.59;112838;1255;21906;-71
2024/04/08 10:22:02;;;;;;;6.90;2.50;;;;;;;28.43;31.38;100198.98;113037;1255;21850;-71
2024/04/08 10:24:35;;;;;;;4.40;2.10;;;;;;;28.54;31.36;100193.41;112855;1255;21922;-70
2024/04/08 10:27:11;;;;;;;6.50;2.00;;;;;;;28.76;30.90;100199.39;112944;1254;21891;-71
2024/04/08 10:29:41;;;;;;;3.80;1.70;;;;;;;28.77;30.61;100194.02;112776;1255;21865;-70
2024/04/08 10:32:13;;;;;;;6.70;2.00;;;;;;;28.66;30.58;100190.08;112876;1255;21856;-71
2024/04/08 10:34:44;;;;;;;3.40;1.90;;;;;;;28.63;30.52;100186.27;112836;1255;21866;-70
2024/04/08 10:37:12;;;;;;;4.60;2.30;;;;;;;28.75;30.57;100187.69;112838;1256;21925;-70
2024/04/08 10:39:42;;;;;;;5.00;2.20;;;;;;;28.90;30.31;100188.41;113008;1255;21917;-70
2024/04/08 10:42:18;;;;;;;5.10;2.10;;;;;;;29.03;30.40;100186.14;112868;1255;21863;-70
2024/04/08 10:44:47;;;;;;;5.10;2.00;;;;;;;29.07;30.05;100183.48;112835;1256;21899;-70
2024/04/08 10:47:16;;;;;;;3.80;2.20;;;;;;;29.11;29.83;100180.05;112846;1256;22226;-72
2024/04/08 10:49:45;;;;;;;8.20;2.40;;;;;;;29.21;29.90;100179.12;112849;1255;21899;-70
2024/04/08 10:52:14;;;;;;;7.00;2.30;;;;;;;29.31;29.56;100179.73;112848;1255;21854;-72
2024/04/08 10:54:43;;;;;;;5.70;2.60;;;;;;;29.26;29.59;100177.06;112663;1256;21884;-70
2024/04/08 10:57:12;;;;;;;6.70;2.80;;;;;;;29.31;29.87;100175.33;112873;1256;22428;-71
2024/04/08 10:59:41;;;;;;;7.20;2.80;;;;;;;29.37;29.44;100171.12;113023;1255;21901;-72
2024/04/08 11:02:14;;;;;;;8.10;2.10;;;;;;;29.46;29.51;100166.70;112831;1255;21864;-72
2024/04/08 11:04:43;;;;;;;9.50;2.60;;;;;;;29.41;29.43;100168.05;112867;1255;21915;-72
2024/04/08 11:07:12;;;;;;;5.60;2.30;;;;;;;29.45;29.92;100166.68;112711;1255;22307;-72
2024/04/08 11:09:41;;;;;;;11.40;2.60;;;;;;;29.51;29.71;100164.66;113027;1255;21829;-71
2024/04/08 11:12:14;;;;;;;6.90;2.20;;;;;;;29.49;29.49;100161.89;112730;1255;21812;-72
2024/04/08 11:14:45;;;;;;;3.50;2.30;;;;;;;29.41;29.30;100164.33;112841;1256;21892;-72
2024/04/08 11:17:19;;;;;;;4.80;2.00;;;;;;;29.37;29.44;100165.73;112873;1255;21859;-73
2024/04/08 11:19:58;;;;;;;6.20;1.80;;;;;;;29.31;29.36;100162.05;112878;1255;21854;-73